This is the latest recevied weather packets stored in our database for station/object R8AHC-W5. If no packets are shown the sender has not sent any weather packets the latest 10 day(s).
| Time | Temp. | Humidity | Pressure | Rain* | Wind** | Luminosity | Snow |
|---|---|---|---|---|---|---|---|
| 1778018102 | 11.11° C | 82% | 1015 hPa | - | 3.58 m/s, 233° | - | - |
| 1778014532 | 11.11° C | 81% | 1014 hPa | - | 3.13 m/s, 227° | - | - |
| 1778010902 | 11.67° C | 79% | 1014 hPa | - | 3.13 m/s, 222° | - | - |
| 1778007302 | 12.22° C | 77% | 1014 hPa | - | 3.58 m/s, 215° | - | - |
| 1778003702 | 12.78° C | 73% | 1014 hPa | - | 3.58 m/s, 210° | - | - |
| 1778000101 | 13.33° C | 68% | 1015 hPa | - | 3.13 m/s, 228° | - | - |
| 1777996502 | 13.89° C | 63% | 1015 hPa | - | 3.13 m/s, 221° | - | - |
| 1777989302 | 17.22° C | 54% | 1014 hPa | - | 2.24 m/s, 231° | - | - |
| 1777985702 | 18.33° C | 43% | 1013 hPa | - | 1.79 m/s, 270° | - | - |
| 1777982101 | 18.89° C | 41% | 1013 hPa | - | 2.24 m/s, 300° | - | - |
| 1777978502 | 18.33° C | 42% | 1012 hPa | - | 2.24 m/s, 303° | - | - |
| 1777974902 | 18.33° C | 45% | 1012 hPa | - | 2.68 m/s, 293° | - | - |
| 1777971303 | 17.22° C | 49% | 1012 hPa | - | 3.13 m/s, 288° | - | - |
| 1777967702 | 16.11° C | 51% | 1012 hPa | - | 2.24 m/s, 301° | - | - |
| 1777964102 | 15° C | 55% | 1012 hPa | - | 2.24 m/s, 313° | - | - |
| 1777960502 | 13.89° C | 62% | 1012 hPa | - | 3.13 m/s, 287° | - | - |
| 1777956902 | 11.67° C | 74% | 1012 hPa | - | 3.13 m/s, 310° | - | - |
| 1777953302 | 10° C | 86% | 1012 hPa | - | 3.13 m/s, 314° | - | - |
| 1777949702 | 9.44° C | 89% | 1011 hPa | - | 4.47 m/s, 334° | - | - |
| 1777946102 | 10° C | 90% | 1010 hPa | - | 6.26 m/s, 332° | - | - |
| 1777942501 | 10° C | 94% | 1010 hPa | - | 4.47 m/s, 316° | - | - |
| 1777938901 | 10.56° C | 95% | 1009 hPa | - | 2.24 m/s, 308° | - | - |
| 1777935302 | 10.56° C | 96% | 1009 hPa | - | 1.79 m/s, 19° | - | - |
| 1777931702 | 10.56° C | 96% | 1009 hPa | - | 1.79 m/s, 5° | - | - |
| 1777928102 | 11.11° C | 94% | 1009 hPa | - | 1.34 m/s, 357° | - | - |
* Rain since midnight (hover to see other rain measurements)
** Current wind speed in m/s (hover to see current wind gust speed)